sensor_id;sensor_type;location;lat;lon;timestamp;P1;durP1;ratioP1;P2;durP2;ratioP2
36009;SDS011;22076;52.182;5.404;2022-07-03T00:02:12;5.95;;;4.10;;
36009;SDS011;22076;52.182;5.404;2022-07-03T00:04:41;4.78;;;3.63;;
36009;SDS011;22076;52.182;5.404;2022-07-03T00:07:09;5.53;;;3.42;;
36009;SDS011;22076;52.182;5.404;2022-07-03T00:09:36;3.10;;;2.60;;
36009;SDS011;22076;52.182;5.404;2022-07-03T00:12:03;4.95;;;3.30;;
36009;SDS011;22076;52.182;5.404;2022-07-03T00:14:30;3.38;;;3.00;;
36009;SDS011;22076;52.182;5.404;2022-07-03T00:16:57;5.85;;;3.05;;
36009;SDS011;22076;52.182;5.404;2022-07-03T00:19:24;4.53;;;3.45;;
36009;SDS011;22076;52.182;5.404;2022-07-03T00:21:52;5.55;;;2.83;;
36009;SDS011;22076;52.182;5.404;2022-07-03T00:24:22;4.68;;;3.00;;
36009;SDS011;22076;52.182;5.404;2022-07-03T00:26:51;5.53;;;3.22;;
36009;SDS011;22076;52.182;5.404;2022-07-03T00:29:20;7.15;;;4.20;;
36009;SDS011;22076;52.182;5.404;2022-07-03T00:31:48;4.82;;;3.55;;
36009;SDS011;22076;52.182;5.404;2022-07-03T00:34:15;5.82;;;3.47;;
36009;SDS011;22076;52.182;5.404;2022-07-03T00:36:44;6.68;;;4.05;;
36009;SDS011;22076;52.182;5.404;2022-07-03T00:39:14;6.13;;;3.22;;
36009;SDS011;22076;52.182;5.404;2022-07-03T00:41:43;2.53;;;2.22;;
36009;SDS011;22076;52.182;5.404;2022-07-03T00:44:11;3.35;;;2.55;;
36009;SDS011;22076;52.182;5.404;2022-07-03T00:46:38;3.97;;;2.65;;
36009;SDS011;22076;52.182;5.404;2022-07-03T00:49:06;6.53;;;3.35;;
36009;SDS011;22076;52.182;5.404;2022-07-03T00:51:32;3.92;;;2.53;;
36009;SDS011;22076;52.182;5.404;2022-07-03T00:54:01;5.53;;;3.30;;
36009;SDS011;22076;52.182;5.404;2022-07-03T00:56:29;2.78;;;1.92;;
36009;SDS011;22076;52.182;5.404;2022-07-03T00:58:58;7.82;;;2.90;;
36009;SDS011;22076;52.182;5.404;2022-07-03T01:01:26;4.25;;;2.60;;
36009;SDS011;22076;52.182;5.404;2022-07-03T01:04:01;3.53;;;2.50;;
36009;SDS011;22076;52.182;5.404;2022-07-03T01:06:33;3.33;;;2.38;;
36009;SDS011;22076;52.182;5.404;2022-07-03T01:09:02;4.22;;;2.60;;
36009;SDS011;22076;52.182;5.404;2022-07-03T01:11:31;4.20;;;3.00;;
36009;SDS011;22076;52.182;5.404;2022-07-03T01:14:10;5.72;;;3.13;;
36009;SDS011;22076;52.182;5.404;2022-07-03T01:16:46;2.58;;;2.20;;
36009;SDS011;22076;52.182;5.404;2022-07-03T01:19:22;5.15;;;2.50;;
36009;SDS011;22076;52.182;5.404;2022-07-03T01:22:03;3.05;;;2.25;;
36009;SDS011;22076;52.182;5.404;2022-07-03T01:27:44;3.25;;;1.85;;
36009;SDS011;22076;52.182;5.404;2022-07-03T01:30:14;3.10;;;2.00;;
36009;SDS011;22076;52.182;5.404;2022-07-03T01:32:42;3.72;;;2.00;;
36009;SDS011;22076;52.182;5.404;2022-07-03T01:35:11;3.95;;;2.33;;
36009;SDS011;22076;52.182;5.404;2022-07-03T01:37:39;2.90;;;2.20;;
36009;SDS011;22076;52.182;5.404;2022-07-03T01:40:07;3.47;;;2.10;;
36009;SDS011;22076;52.182;5.404;2022-07-03T01:42:35;2.33;;;1.95;;
36009;SDS011;22076;52.182;5.404;2022-07-03T01:45:07;4.07;;;2.17;;
36009;SDS011;22076;52.182;5.404;2022-07-03T01:47:36;3.70;;;2.00;;
36009;SDS011;22076;52.182;5.404;2022-07-03T01:50:04;2.30;;;2.10;;
36009;SDS011;22076;52.182;5.404;2022-07-03T01:52:32;5.00;;;2.10;;
36009;SDS011;22076;52.182;5.404;2022-07-03T01:54:59;5.30;;;1.90;;
36009;SDS011;22076;52.182;5.404;2022-07-03T01:57:27;4.25;;;1.95;;
36009;SDS011;22076;52.182;5.404;2022-07-03T02:00:02;3.67;;;2.10;;
36009;SDS011;22076;52.182;5.404;2022-07-03T02:02:31;3.42;;;2.10;;
36009;SDS011;22076;52.182;5.404;2022-07-03T02:04:59;3.13;;;2.10;;
36009;SDS011;22076;52.182;5.404;2022-07-03T02:07:44;4.40;;;2.22;;
36009;SDS011;22076;52.182;5.404;2022-07-03T02:10:15;1.90;;;1.60;;
36009;SDS011;22076;52.182;5.404;2022-07-03T02:12:45;3.55;;;1.90;;
36009;SDS011;22076;52.182;5.404;2022-07-03T02:15:16;3.05;;;1.92;;
36009;SDS011;22076;52.182;5.404;2022-07-03T02:17:45;3.28;;;2.22;;
36009;SDS011;22076;52.182;5.404;2022-07-03T02:20:14;3.53;;;2.50;;
36009;SDS011;22076;52.182;5.404;2022-07-03T02:22:42;3.42;;;1.95;;
36009;SDS011;22076;52.182;5.404;2022-07-03T02:25:12;3.25;;;1.90;;
36009;SDS011;22076;52.182;5.404;2022-07-03T02:27:47;3.38;;;2.45;;
36009;SDS011;22076;52.182;5.404;2022-07-03T02:30:17;3.50;;;2.47;;
36009;SDS011;22076;52.182;5.404;2022-07-03T02:32:44;2.88;;;2.00;;
36009;SDS011;22076;52.182;5.404;2022-07-03T02:35:17;2.88;;;2.08;;
36009;SDS011;22076;52.182;5.404;2022-07-03T02:37:45;2.47;;;2.17;;
36009;SDS011;22076;52.182;5.404;2022-07-03T02:40:20;3.70;;;2.83;;
36009;SDS011;22076;52.182;5.404;2022-07-03T02:42:54;3.10;;;2.10;;
36009;SDS011;22076;52.182;5.404;2022-07-03T02:45:31;3.40;;;2.25;;
36009;SDS011;22076;52.182;5.404;2022-07-03T02:48:06;2.72;;;2.33;;
36009;SDS011;22076;52.182;5.404;2022-07-03T02:50:36;2.95;;;1.85;;
36009;SDS011;22076;52.182;5.404;2022-07-03T02:53:04;3.78;;;2.10;;
36009;SDS011;22076;52.182;5.404;2022-07-03T02:55:39;3.35;;;2.00;;
36009;SDS011;22076;52.182;5.404;2022-07-03T02:58:15;2.30;;;2.10;;
36009;SDS011;22076;52.182;5.404;2022-07-03T03:00:53;5.00;;;2.40;;
36009;SDS011;22076;52.182;5.404;2022-07-03T03:03:26;4.28;;;2.10;;
36009;SDS011;22076;52.182;5.404;2022-07-03T03:05:54;4.15;;;2.58;;
36009;SDS011;22076;52.182;5.404;2022-07-03T03:08:25;3.92;;;2.22;;
36009;SDS011;22076;52.182;5.404;2022-07-03T03:10:59;3.35;;;2.10;;
36009;SDS011;22076;52.182;5.404;2022-07-03T03:13:29;4.03;;;1.98;;
36009;SDS011;22076;52.182;5.404;2022-07-03T03:15:57;3.05;;;1.92;;
36009;SDS011;22076;52.182;5.404;2022-07-03T03:18:33;3.72;;;2.00;;
36009;SDS011;22076;52.182;5.404;2022-07-03T03:21:01;4.03;;;2.55;;
36009;SDS011;22076;52.182;5.404;2022-07-03T03:23:44;3.10;;;2.53;;
36009;SDS011;22076;52.182;5.404;2022-07-03T03:26:13;5.78;;;2.55;;
36009;SDS011;22076;52.182;5.404;2022-07-03T03:28:40;4.15;;;2.20;;
36009;SDS011;22076;52.182;5.404;2022-07-03T03:31:07;4.03;;;3.08;;
36009;SDS011;22076;52.182;5.404;2022-07-03T03:33:37;3.85;;;2.20;;
36009;SDS011;22076;52.182;5.404;2022-07-03T03:36:07;2.78;;;2.08;;
36009;SDS011;22076;52.182;5.404;2022-07-03T03:38:34;2.10;;;1.90;;
36009;SDS011;22076;52.182;5.404;2022-07-03T03:41:01;5.32;;;2.10;;
36009;SDS011;22076;52.182;5.404;2022-07-03T03:43:28;4.43;;;2.40;;
36009;SDS011;22076;52.182;5.404;2022-07-03T03:45:55;4.95;;;2.42;;
36009;SDS011;22076;52.182;5.404;2022-07-03T03:48:21;3.40;;;2.47;;
36009;SDS011;22076;52.182;5.404;2022-07-03T03:50:49;3.13;;;2.25;;
36009;SDS011;22076;52.182;5.404;2022-07-03T03:53:16;2.70;;;2.00;;
36009;SDS011;22076;52.182;5.404;2022-07-03T03:55:54;3.08;;;2.08;;
36009;SDS011;22076;52.182;5.404;2022-07-03T03:58:24;3.85;;;2.33;;
36009;SDS011;22076;52.182;5.404;2022-07-03T04:00:51;5.28;;;2.30;;
36009;SDS011;22076;52.182;5.404;2022-07-03T04:03:18;4.50;;;2.08;;
36009;SDS011;22076;52.182;5.404;2022-07-03T04:05:45;3.47;;;1.95;;
36009;SDS011;22076;52.182;5.404;2022-07-03T04:08:13;3.10;;;1.98;;
36009;SDS011;22076;52.182;5.404;2022-07-03T04:10:39;3.25;;;2.00;;
36009;SDS011;22076;52.182;5.404;2022-07-03T04:13:06;4.68;;;2.47;;
36009;SDS011;22076;52.182;5.404;2022-07-03T04:15:33;3.95;;;1.85;;
36009;SDS011;22076;52.182;5.404;2022-07-03T04:17:59;3.33;;;1.75;;
36009;SDS011;22076;52.182;5.404;2022-07-03T04:20:26;2.95;;;1.90;;
36009;SDS011;22076;52.182;5.404;2022-07-03T04:22:53;2.45;;;1.73;;
36009;SDS011;22076;52.182;5.404;2022-07-03T04:25:21;4.18;;;1.75;;
36009;SDS011;22076;52.182;5.404;2022-07-03T04:27:47;5.22;;;1.92;;
36009;SDS011;22076;52.182;5.404;2022-07-03T04:30:14;5.00;;;1.77;;
36009;SDS011;22076;52.182;5.404;2022-07-03T04:32:41;2.55;;;1.63;;
36009;SDS011;22076;52.182;5.404;2022-07-03T04:35:08;2.60;;;1.48;;
36009;SDS011;22076;52.182;5.404;2022-07-03T04:37:35;6.00;;;2.38;;
36009;SDS011;22076;52.182;5.404;2022-07-03T04:40:01;1.88;;;1.58;;
36009;SDS011;22076;52.182;5.404;2022-07-03T04:42:30;3.10;;;1.90;;
36009;SDS011;22076;52.182;5.404;2022-07-03T04:44:57;4.15;;;1.85;;
36009;SDS011;22076;52.182;5.404;2022-07-03T04:47:23;8.90;;;1.88;;
36009;SDS011;22076;52.182;5.404;2022-07-03T04:49:50;2.83;;;1.92;;
36009;SDS011;22076;52.182;5.404;2022-07-03T04:52:16;3.58;;;1.48;;
36009;SDS011;22076;52.182;5.404;2022-07-03T04:54:43;2.25;;;1.58;;
36009;SDS011;22076;52.182;5.404;2022-07-03T04:57:10;6.00;;;1.60;;
36009;SDS011;22076;52.182;5.404;2022-07-03T04:59:38;3.50;;;2.22;;
36009;SDS011;22076;52.182;5.404;2022-07-03T05:02:05;2.92;;;1.67;;
36009;SDS011;22076;52.182;5.404;2022-07-03T05:04:31;2.67;;;1.40;;
36009;SDS011;22076;52.182;5.404;2022-07-03T05:06:58;2.80;;;1.50;;
36009;SDS011;22076;52.182;5.404;2022-07-03T05:09:25;4.38;;;1.70;;
36009;SDS011;22076;52.182;5.404;2022-07-03T05:11:51;2.30;;;1.38;;
36009;SDS011;22076;52.182;5.404;2022-07-03T05:14:18;1.92;;;0.98;;
36009;SDS011;22076;52.182;5.404;2022-07-03T05:16:46;4.82;;;1.50;;
36009;SDS011;22076;52.182;5.404;2022-07-03T05:19:13;2.75;;;1.20;;
36009;SDS011;22076;52.182;5.404;2022-07-03T05:21:39;5.47;;;1.85;;
36009;SDS011;22076;52.182;5.404;2022-07-03T05:24:06;5.88;;;1.50;;
36009;SDS011;22076;52.182;5.404;2022-07-03T05:26:33;2.20;;;1.30;;
36009;SDS011;22076;52.182;5.404;2022-07-03T05:28:59;6.10;;;1.30;;
36009;SDS011;22076;52.182;5.404;2022-07-03T05:31:26;5.85;;;1.45;;
36009;SDS011;22076;52.182;5.404;2022-07-03T05:33:54;4.95;;;1.52;;
36009;SDS011;22076;52.182;5.404;2022-07-03T05:36:21;3.28;;;1.23;;
36009;SDS011;22076;52.182;5.404;2022-07-03T05:38:47;2.65;;;1.20;;
36009;SDS011;22076;52.182;5.404;2022-07-03T05:41:31;3.40;;;1.10;;
36009;SDS011;22076;52.182;5.404;2022-07-03T05:43:58;3.42;;;1.17;;
36009;SDS011;22076;52.182;5.404;2022-07-03T05:46:24;2.00;;;0.90;;
36009;SDS011;22076;52.182;5.404;2022-07-03T05:48:51;2.30;;;1.30;;
36009;SDS011;22076;52.182;5.404;2022-07-03T05:51:19;7.57;;;1.50;;
36009;SDS011;22076;52.182;5.404;2022-07-03T05:53:46;5.85;;;1.85;;
36009;SDS011;22076;52.182;5.404;2022-07-03T05:56:12;7.22;;;1.98;;
36009;SDS011;22076;52.182;5.404;2022-07-03T05:58:39;3.13;;;1.42;;
36009;SDS011;22076;52.182;5.404;2022-07-03T06:01:06;5.53;;;1.38;;
36009;SDS011;22076;52.182;5.404;2022-07-03T06:03:33;5.93;;;1.63;;
36009;SDS011;22076;52.182;5.404;2022-07-03T06:05:59;4.07;;;1.40;;
36009;SDS011;22076;52.182;5.404;2022-07-03T06:08:27;4.68;;;1.20;;
36009;SDS011;22076;52.182;5.404;2022-07-03T06:10:54;4.47;;;1.25;;
36009;SDS011;22076;52.182;5.404;2022-07-03T06:13:21;4.90;;;1.70;;
36009;SDS011;22076;52.182;5.404;2022-07-03T06:15:47;3.22;;;1.35;;
36009;SDS011;22076;52.182;5.404;2022-07-03T06:18:14;3.72;;;1.20;;
36009;SDS011;22076;52.182;5.404;2022-07-03T06:20:41;3.25;;;1.13;;
36009;SDS011;22076;52.182;5.404;2022-07-03T06:23:07;3.38;;;1.63;;
36009;SDS011;22076;52.182;5.404;2022-07-03T06:25:35;5.68;;;1.42;;
36009;SDS011;22076;52.182;5.404;2022-07-03T06:28:02;5.55;;;1.60;;
36009;SDS011;22076;52.182;5.404;2022-07-03T06:30:29;4.65;;;1.30;;
36009;SDS011;22076;52.182;5.404;2022-07-03T06:32:55;4.93;;;1.50;;
36009;SDS011;22076;52.182;5.404;2022-07-03T06:35:22;6.75;;;1.75;;
36009;SDS011;22076;52.182;5.404;2022-07-03T06:37:49;5.35;;;1.20;;
36009;SDS011;22076;52.182;5.404;2022-07-03T06:40:15;5.95;;;1.30;;
36009;SDS011;22076;52.182;5.404;2022-07-03T06:42:43;3.30;;;1.42;;
36009;SDS011;22076;52.182;5.404;2022-07-03T06:45:10;2.72;;;1.20;;
36009;SDS011;22076;52.182;5.404;2022-07-03T06:47:37;5.50;;;2.42;;
36009;SDS011;22076;52.182;5.404;2022-07-03T06:50:05;4.00;;;1.13;;
36009;SDS011;22076;52.182;5.404;2022-07-03T06:52:32;7.72;;;1.38;;
36009;SDS011;22076;52.182;5.404;2022-07-03T06:54:58;5.45;;;1.55;;
36009;SDS011;22076;52.182;5.404;2022-07-03T06:57:28;2.65;;;1.58;;
36009;SDS011;22076;52.182;5.404;2022-07-03T06:59:56;2.58;;;1.10;;
36009;SDS011;22076;52.182;5.404;2022-07-03T07:02:22;3.15;;;1.55;;
36009;SDS011;22076;52.182;5.404;2022-07-03T07:04:49;4.07;;;1.40;;
36009;SDS011;22076;52.182;5.404;2022-07-03T07:07:16;4.40;;;1.10;;
36009;SDS011;22076;52.182;5.404;2022-07-03T07:09:42;3.90;;;1.50;;
36009;SDS011;22076;52.182;5.404;2022-07-03T07:12:09;4.45;;;1.20;;
36009;SDS011;22076;52.182;5.404;2022-07-03T07:14:36;1.95;;;0.80;;
36009;SDS011;22076;52.182;5.404;2022-07-03T07:17:04;6.53;;;1.77;;
36009;SDS011;22076;52.182;5.404;2022-07-03T07:19:31;4.78;;;1.38;;
36009;SDS011;22076;52.182;5.404;2022-07-03T07:21:58;4.25;;;1.10;;
36009;SDS011;22076;52.182;5.404;2022-07-03T07:24:26;4.85;;;1.30;;
36009;SDS011;22076;52.182;5.404;2022-07-03T07:26:52;2.92;;;1.10;;
36009;SDS011;22076;52.182;5.404;2022-07-03T07:29:19;3.03;;;1.08;;
36009;SDS011;22076;52.182;5.404;2022-07-03T07:31:46;4.13;;;1.13;;
36009;SDS011;22076;52.182;5.404;2022-07-03T07:34:14;6.13;;;1.38;;
36009;SDS011;22076;52.182;5.404;2022-07-03T07:36:41;6.43;;;1.13;;
36009;SDS011;22076;52.182;5.404;2022-07-03T07:39:07;5.28;;;1.30;;
36009;SDS011;22076;52.182;5.404;2022-07-03T07:41:34;4.53;;;1.17;;
36009;SDS011;22076;52.182;5.404;2022-07-03T07:44:01;5.47;;;1.20;;
36009;SDS011;22076;52.182;5.404;2022-07-03T07:46:28;5.60;;;1.20;;
36009;SDS011;22076;52.182;5.404;2022-07-03T07:48:55;6.20;;;1.67;;
36009;SDS011;22076;52.182;5.404;2022-07-03T07:51:23;3.85;;;1.33;;
36009;SDS011;22076;52.182;5.404;2022-07-03T07:53:49;3.97;;;1.02;;
36009;SDS011;22076;52.182;5.404;2022-07-03T07:56:17;4.65;;;1.30;;
36009;SDS011;22076;52.182;5.404;2022-07-03T07:58:44;3.70;;;1.38;;
36009;SDS011;22076;52.182;5.404;2022-07-03T08:01:10;2.55;;;1.20;;
36009;SDS011;22076;52.182;5.404;2022-07-03T08:03:55;3.00;;;1.05;;
36009;SDS011;22076;52.182;5.404;2022-07-03T08:06:41;6.22;;;1.73;;
36009;SDS011;22076;52.182;5.404;2022-07-03T08:09:08;3.05;;;1.50;;
36009;SDS011;22076;52.182;5.404;2022-07-03T08:11:35;3.47;;;1.30;;
36009;SDS011;22076;52.182;5.404;2022-07-03T08:14:01;5.45;;;1.23;;
36009;SDS011;22076;52.182;5.404;2022-07-03T08:16:30;2.85;;;1.05;;
36009;SDS011;22076;52.182;5.404;2022-07-03T08:18:56;3.17;;;1.00;;
36009;SDS011;22076;52.182;5.404;2022-07-03T08:21:24;4.47;;;1.30;;
36009;SDS011;22076;52.182;5.404;2022-07-03T08:23:52;3.03;;;1.00;;
36009;SDS011;22076;52.182;5.404;2022-07-03T08:26:18;2.30;;;0.85;;
36009;SDS011;22076;52.182;5.404;2022-07-03T08:28:45;2.15;;;1.20;;
36009;SDS011;22076;52.182;5.404;2022-07-03T08:31:12;2.97;;;1.05;;
36009;SDS011;22076;52.182;5.404;2022-07-03T08:33:38;1.90;;;1.10;;
36009;SDS011;22076;52.182;5.404;2022-07-03T08:36:05;2.13;;;0.95;;
36009;SDS011;22076;52.182;5.404;2022-07-03T08:38:32;2.72;;;0.95;;
36009;SDS011;22076;52.182;5.404;2022-07-03T08:41:01;1.80;;;0.98;;
36009;SDS011;22076;52.182;5.404;2022-07-03T08:43:28;3.17;;;0.80;;
36009;SDS011;22076;52.182;5.404;2022-07-03T08:45:55;2.25;;;1.20;;
36009;SDS011;22076;52.182;5.404;2022-07-03T08:48:23;3.63;;;1.20;;
36009;SDS011;22076;52.182;5.404;2022-07-03T08:50:51;4.38;;;1.08;;
36009;SDS011;22076;52.182;5.404;2022-07-03T08:53:18;2.67;;;1.15;;
36009;SDS011;22076;52.182;5.404;2022-07-03T08:55:45;2.63;;;1.25;;
36009;SDS011;22076;52.182;5.404;2022-07-03T08:58:15;2.97;;;1.00;;
36009;SDS011;22076;52.182;5.404;2022-07-03T09:00:44;3.05;;;1.45;;
36009;SDS011;22076;52.182;5.404;2022-07-03T09:03:11;3.63;;;0.85;;
36009;SDS011;22076;52.182;5.404;2022-07-03T09:05:38;3.05;;;1.02;;
36009;SDS011;22076;52.182;5.404;2022-07-03T09:08:05;4.00;;;0.95;;
36009;SDS011;22076;52.182;5.404;2022-07-03T09:10:32;2.33;;;0.85;;
36009;SDS011;22076;52.182;5.404;2022-07-03T09:12:59;1.88;;;0.90;;
36009;SDS011;22076;52.182;5.404;2022-07-03T09:15:27;1.50;;;0.95;;
36009;SDS011;22076;52.182;5.404;2022-07-03T09:17:57;2.58;;;1.10;;
36009;SDS011;22076;52.182;5.404;2022-07-03T09:20:29;2.92;;;1.13;;
36009;SDS011;22076;52.182;5.404;2022-07-03T09:25:54;2.13;;;1.08;;
36009;SDS011;22076;52.182;5.404;2022-07-03T09:28:22;3.17;;;0.90;;
36009;SDS011;22076;52.182;5.404;2022-07-03T09:30:57;3.88;;;0.90;;
36009;SDS011;22076;52.182;5.404;2022-07-03T09:33:25;1.52;;;0.82;;
36009;SDS011;22076;52.182;5.404;2022-07-03T09:35:52;3.22;;;1.13;;
36009;SDS011;22076;52.182;5.404;2022-07-03T09:38:20;2.35;;;1.30;;
36009;SDS011;22076;52.182;5.404;2022-07-03T09:40:47;2.95;;;1.20;;
36009;SDS011;22076;52.182;5.404;2022-07-03T09:43:15;5.07;;;1.52;;
36009;SDS011;22076;52.182;5.404;2022-07-03T09:45:48;5.97;;;1.55;;
36009;SDS011;22076;52.182;5.404;2022-07-03T09:48:27;1.50;;;1.05;;
36009;SDS011;22076;52.182;5.404;2022-07-03T09:51:10;4.03;;;1.58;;
36009;SDS011;22076;52.182;5.404;2022-07-03T09:53:45;3.55;;;1.05;;
36009;SDS011;22076;52.182;5.404;2022-07-03T09:56:13;4.90;;;1.42;;
36009;SDS011;22076;52.182;5.404;2022-07-03T09:58:41;4.72;;;1.33;;
36009;SDS011;22076;52.182;5.404;2022-07-03T10:01:17;3.67;;;1.20;;
36009;SDS011;22076;52.182;5.404;2022-07-03T10:03:45;1.58;;;0.80;;
36009;SDS011;22076;52.182;5.404;2022-07-03T10:06:13;4.18;;;1.13;;
36009;SDS011;22076;52.182;5.404;2022-07-03T10:08:40;5.80;;;1.13;;
36009;SDS011;22076;52.182;5.404;2022-07-03T10:11:08;2.80;;;0.98;;
36009;SDS011;22076;52.182;5.404;2022-07-03T10:13:36;2.92;;;1.02;;
36009;SDS011;22076;52.182;5.404;2022-07-03T10:16:04;1.88;;;1.10;;
36009;SDS011;22076;52.182;5.404;2022-07-03T10:18:31;4.43;;;1.35;;
36009;SDS011;22076;52.182;5.404;2022-07-03T10:21:05;2.63;;;1.40;;
36009;SDS011;22076;52.182;5.404;2022-07-03T10:23:32;4.50;;;1.30;;
36009;SDS011;22076;52.182;5.404;2022-07-03T10:25:59;4.15;;;1.27;;
36009;SDS011;22076;52.182;5.404;2022-07-03T10:28:25;4.50;;;1.45;;
36009;SDS011;22076;52.182;5.404;2022-07-03T10:30:52;2.33;;;1.20;;
36009;SDS011;22076;52.182;5.404;2022-07-03T10:33:20;4.47;;;1.42;;
36009;SDS011;22076;52.182;5.404;2022-07-03T10:35:48;3.05;;;1.25;;
36009;SDS011;22076;52.182;5.404;2022-07-03T10:38:25;3.53;;;1.20;;
36009;SDS011;22076;52.182;5.404;2022-07-03T10:41:02;3.33;;;1.40;;
36009;SDS011;22076;52.182;5.404;2022-07-03T10:43:48;5.07;;;1.20;;
36009;SDS011;22076;52.182;5.404;2022-07-03T10:46:32;4.28;;;1.52;;
36009;SDS011;22076;52.182;5.404;2022-07-03T10:49:00;3.83;;;1.40;;
36009;SDS011;22076;52.182;5.404;2022-07-03T10:51:30;3.30;;;1.20;;
36009;SDS011;22076;52.182;5.404;2022-07-03T10:54:15;5.45;;;1.38;;
36009;SDS011;22076;52.182;5.404;2022-07-03T11:02:28;5.15;;;1.40;;
36009;SDS011;22076;52.182;5.404;2022-07-03T11:05:07;4.68;;;1.50;;
36009;SDS011;22076;52.182;5.404;2022-07-03T11:07:38;2.13;;;1.23;;
36009;SDS011;22076;52.182;5.404;2022-07-03T11:13:01;3.25;;;1.30;;
36009;SDS011;22076;52.182;5.404;2022-07-03T11:15:29;3.50;;;1.50;;
36009;SDS011;22076;52.182;5.404;2022-07-03T11:21:02;2.55;;;1.02;;
36009;SDS011;22076;52.182;5.404;2022-07-03T11:26:41;3.22;;;1.17;;
36009;SDS011;22076;52.182;5.404;2022-07-03T11:31:53;5.10;;;1.15;;
36009;SDS011;22076;52.182;5.404;2022-07-03T11:34:20;2.78;;;1.45;;
36009;SDS011;22076;52.182;5.404;2022-07-03T11:36:47;1.70;;;1.13;;
36009;SDS011;22076;52.182;5.404;2022-07-03T11:39:14;4.63;;;1.73;;
36009;SDS011;22076;52.182;5.404;2022-07-03T11:41:47;2.80;;;1.20;;
36009;SDS011;22076;52.182;5.404;2022-07-03T11:44:14;3.30;;;1.20;;
36009;SDS011;22076;52.182;5.404;2022-07-03T11:46:45;3.95;;;1.27;;
36009;SDS011;22076;52.182;5.404;2022-07-03T11:49:14;1.88;;;1.20;;
36009;SDS011;22076;52.182;5.404;2022-07-03T11:51:42;2.40;;;1.25;;
36009;SDS011;22076;52.182;5.404;2022-07-03T11:54:10;3.03;;;1.20;;
36009;SDS011;22076;52.182;5.404;2022-07-03T11:56:36;3.17;;;1.50;;
36009;SDS011;22076;52.182;5.404;2022-07-03T11:59:05;4.53;;;1.77;;
36009;SDS011;22076;52.182;5.404;2022-07-03T12:01:32;3.22;;;1.30;;
36009;SDS011;22076;52.182;5.404;2022-07-03T12:04:04;2.33;;;1.25;;
36009;SDS011;22076;52.182;5.404;2022-07-03T12:06:35;2.25;;;1.40;;
36009;SDS011;22076;52.182;5.404;2022-07-03T12:09:03;5.47;;;1.20;;
36009;SDS011;22076;52.182;5.404;2022-07-03T12:11:38;4.68;;;1.95;;
36009;SDS011;22076;52.182;5.404;2022-07-03T12:14:06;3.95;;;1.33;;
36009;SDS011;22076;52.182;5.404;2022-07-03T12:16:33;3.45;;;1.30;;
36009;SDS011;22076;52.182;5.404;2022-07-03T12:19:03;5.00;;;1.40;;
36009;SDS011;22076;52.182;5.404;2022-07-03T12:21:35;2.47;;;1.00;;
36009;SDS011;22076;52.182;5.404;2022-07-03T12:24:08;2.30;;;1.42;;
36009;SDS011;22076;52.182;5.404;2022-07-03T12:26:36;1.70;;;1.10;;
36009;SDS011;22076;52.182;5.404;2022-07-03T12:29:03;3.05;;;1.38;;
36009;SDS011;22076;52.182;5.404;2022-07-03T12:31:33;1.90;;;1.17;;
36009;SDS011;22076;52.182;5.404;2022-07-03T12:34:00;2.75;;;1.50;;
36009;SDS011;22076;52.182;5.404;2022-07-03T12:36:27;4.15;;;1.27;;
36009;SDS011;22076;52.182;5.404;2022-07-03T12:38:55;1.70;;;1.17;;
36009;SDS011;22076;52.182;5.404;2022-07-03T12:41:22;3.20;;;1.50;;
36009;SDS011;22076;52.182;5.404;2022-07-03T12:43:50;3.75;;;1.20;;
36009;SDS011;22076;52.182;5.404;2022-07-03T12:46:17;2.80;;;1.05;;
36009;SDS011;22076;52.182;5.404;2022-07-03T12:48:46;3.45;;;1.20;;
36009;SDS011;22076;52.182;5.404;2022-07-03T12:51:14;2.92;;;1.25;;
36009;SDS011;22076;52.182;5.404;2022-07-03T12:53:40;3.50;;;1.33;;
36009;SDS011;22076;52.182;5.404;2022-07-03T12:56:08;3.30;;;1.25;;
36009;SDS011;22076;52.182;5.404;2022-07-03T12:58:36;1.80;;;1.25;;
36009;SDS011;22076;52.182;5.404;2022-07-03T13:01:24;2.30;;;1.35;;
36009;SDS011;22076;52.182;5.404;2022-07-03T13:03:53;2.45;;;1.13;;
36009;SDS011;22076;52.182;5.404;2022-07-03T13:06:20;2.90;;;1.17;;
36009;SDS011;22076;52.182;5.404;2022-07-03T13:08:50;4.13;;;1.40;;
36009;SDS011;22076;52.182;5.404;2022-07-03T13:11:28;2.47;;;1.00;;
36009;SDS011;22076;52.182;5.404;2022-07-03T13:14:06;2.40;;;0.82;;
36009;SDS011;22076;52.182;5.404;2022-07-03T13:16:35;2.88;;;1.27;;
36009;SDS011;22076;52.182;5.404;2022-07-03T13:19:13;2.80;;;1.17;;
36009;SDS011;22076;52.182;5.404;2022-07-03T13:21:40;3.42;;;1.00;;
36009;SDS011;22076;52.182;5.404;2022-07-03T13:24:08;1.67;;;1.10;;
36009;SDS011;22076;52.182;5.404;2022-07-03T13:26:36;3.72;;;1.60;;
36009;SDS011;22076;52.182;5.404;2022-07-03T13:29:03;2.25;;;1.10;;
36009;SDS011;22076;52.182;5.404;2022-07-03T13:31:29;2.85;;;1.38;;
36009;SDS011;22076;52.182;5.404;2022-07-03T13:33:56;2.33;;;1.10;;
36009;SDS011;22076;52.182;5.404;2022-07-03T13:36:25;3.65;;;1.40;;
36009;SDS011;22076;52.182;5.404;2022-07-03T13:38:52;3.22;;;1.40;;
36009;SDS011;22076;52.182;5.404;2022-07-03T13:41:19;3.15;;;1.27;;
36009;SDS011;22076;52.182;5.404;2022-07-03T13:43:46;1.60;;;1.20;;
36009;SDS011;22076;52.182;5.404;2022-07-03T13:46:13;2.17;;;1.40;;
36009;SDS011;22076;52.182;5.404;2022-07-03T13:48:40;1.52;;;1.00;;
36009;SDS011;22076;52.182;5.404;2022-07-03T13:51:07;4.28;;;1.38;;
36009;SDS011;22076;52.182;5.404;2022-07-03T13:53:35;1.98;;;1.10;;
36009;SDS011;22076;52.182;5.404;2022-07-03T13:56:02;2.08;;;1.17;;
36009;SDS011;22076;52.182;5.404;2022-07-03T13:58:29;3.63;;;1.55;;
36009;SDS011;22076;52.182;5.404;2022-07-03T14:00:55;1.50;;;0.88;;
36009;SDS011;22076;52.182;5.404;2022-07-03T14:03:22;2.50;;;1.02;;
36009;SDS011;22076;52.182;5.404;2022-07-03T14:05:49;2.22;;;1.08;;
36009;SDS011;22076;52.182;5.404;2022-07-03T14:08:16;4.22;;;1.05;;
36009;SDS011;22076;52.182;5.404;2022-07-03T14:10:45;2.17;;;1.02;;
36009;SDS011;22076;52.182;5.404;2022-07-03T14:13:12;2.88;;;1.17;;
36009;SDS011;22076;52.182;5.404;2022-07-03T14:15:39;2.33;;;1.00;;
36009;SDS011;22076;52.182;5.404;2022-07-03T14:18:05;2.75;;;1.10;;
36009;SDS011;22076;52.182;5.404;2022-07-03T14:20:32;1.85;;;0.82;;
36009;SDS011;22076;52.182;5.404;2022-07-03T14:22:58;4.03;;;1.10;;
36009;SDS011;22076;52.182;5.404;2022-07-03T14:25:25;2.38;;;1.10;;
36009;SDS011;22076;52.182;5.404;2022-07-03T14:27:53;3.78;;;1.15;;
36009;SDS011;22076;52.182;5.404;2022-07-03T14:30:37;2.10;;;0.80;;
36009;SDS011;22076;52.182;5.404;2022-07-03T14:33:21;5.05;;;1.10;;
36009;SDS011;22076;52.182;5.404;2022-07-03T14:35:47;1.67;;;1.10;;
36009;SDS011;22076;52.182;5.404;2022-07-03T14:38:14;2.63;;;1.20;;
36009;SDS011;22076;52.182;5.404;2022-07-03T14:40:40;3.65;;;1.38;;
36009;SDS011;22076;52.182;5.404;2022-07-03T14:43:08;4.82;;;1.40;;
36009;SDS011;22076;52.182;5.404;2022-07-03T14:45:35;1.10;;;1.00;;
36009;SDS011;22076;52.182;5.404;2022-07-03T14:48:01;4.25;;;1.48;;
36009;SDS011;22076;52.182;5.404;2022-07-03T14:50:28;2.10;;;0.90;;
36009;SDS011;22076;52.182;5.404;2022-07-03T14:52:54;4.38;;;1.23;;
36009;SDS011;22076;52.182;5.404;2022-07-03T14:55:21;1.73;;;0.85;;
36009;SDS011;22076;52.182;5.404;2022-07-03T14:57:52;1.05;;;0.95;;
36009;SDS011;22076;52.182;5.404;2022-07-03T15:00:22;2.63;;;1.15;;
36009;SDS011;22076;52.182;5.404;2022-07-03T15:02:53;2.50;;;1.13;;
36009;SDS011;22076;52.182;5.404;2022-07-03T15:05:29;4.78;;;1.00;;
36009;SDS011;22076;52.182;5.404;2022-07-03T15:08:00;2.63;;;0.95;;
36009;SDS011;22076;52.182;5.404;2022-07-03T15:10:31;2.22;;;0.95;;
36009;SDS011;22076;52.182;5.404;2022-07-03T15:12:59;3.70;;;1.35;;
36009;SDS011;22076;52.182;5.404;2022-07-03T15:15:28;2.25;;;1.15;;
36009;SDS011;22076;52.182;5.404;2022-07-03T15:17:56;1.92;;;1.20;;
36009;SDS011;22076;52.182;5.404;2022-07-03T15:20:23;1.88;;;1.05;;
36009;SDS011;22076;52.182;5.404;2022-07-03T15:22:52;1.48;;;0.95;;